Time;durP1;ratioP1;P1;durP2;ratioP2;P2;SDS_P1;SDS_P2;PMS_P1;PMS_P2;Temp;Humidity;BMP_temperature;BMP_pressure;BME280_temperature;BME280_humidity;BME280_pressure;Samples;Min_cycle;Max_cycle;Signal;HPM_P1;HPM_P2
2022/01/29 00:00:35;;;;;;;15.45;3.55;;;23.80;58.70;;;;;;5014332;28;20477;-76
2022/01/29 00:03:03;;;;;;;13.63;3.35;;;23.80;58.70;;;;;;5015272;28;20473;-76
2022/01/29 00:05:30;;;;;;;11.25;3.08;;;23.80;58.80;;;;;;5013895;28;20513;-80
2022/01/29 00:07:57;;;;;;;14.13;3.10;;;23.70;58.90;;;;;;5015082;28;20637;-80
2022/01/29 00:10:24;;;;;;;13.50;3.50;;;23.70;59.30;;;;;;5015325;28;20405;-86
2022/01/29 00:12:55;;;;;;;11.23;2.97;;;23.70;59.50;;;;;;5016232;28;20407;-83
2022/01/29 00:15:24;;;;;;;14.80;3.42;;;23.70;59.50;;;;;;5013195;28;20486;-81
2022/01/29 00:17:51;;;;;;;15.32;4.38;;;23.70;59.50;;;;;;5015982;28;20037;-86
2022/01/29 00:20:18;;;;;;;13.05;3.40;;;23.70;59.50;;;;;;5015434;28;20376;-82
2022/01/29 00:22:46;;;;;;;17.63;4.30;;;23.70;59.40;;;;;;5014334;28;20415;-82
2022/01/29 00:25:13;;;;;;;12.88;2.85;;;23.70;59.30;;;;;;5015025;28;20022;-81
2022/01/29 00:27:40;;;;;;;13.60;3.83;;;23.70;59.30;;;;;;5013726;28;20459;-81
2022/01/29 00:30:10;;;;;;;16.30;5.50;;;23.70;59.30;;;;;;5015376;28;20373;-80
2022/01/29 00:32:38;;;;;;;23.75;4.63;;;23.70;59.50;;;;;;5014688;28;20373;-83
2022/01/29 00:35:06;;;;;;;30.50;3.65;;;23.60;59.80;;;;;;5015932;28;20391;-86
2022/01/29 00:37:34;;;;;;;14.30;3.53;;;23.60;59.80;;;;;;5014104;28;20412;-78
2022/01/29 00:40:02;;;;;;;13.32;3.42;;;23.60;59.80;;;;;;5014880;28;20756;-78
2022/01/29 00:42:29;;;;;;;11.88;3.78;;;23.60;59.80;;;;;;5014234;28;20435;-83
2022/01/29 00:44:56;;;;;;;13.23;2.40;;;23.60;59.80;;;;;;5014729;28;20361;-74
2022/01/29 00:47:23;;;;;;;10.30;3.10;;;23.60;59.80;;;;;;5014244;28;20464;-82
2022/01/29 00:49:51;;;;;;;8.00;2.65;;;23.60;59.80;;;;;;5013745;28;20010;-76
2022/01/29 00:52:18;;;;;;;11.05;3.85;;;23.50;59.80;;;;;;5014090;28;20425;-79
2022/01/29 00:54:45;;;;;;;19.08;3.55;;;23.60;59.80;;;;;;5012240;28;20428;-80
2022/01/29 00:57:12;;;;;;;15.98;4.88;;;23.50;59.90;;;;;;5014173;28;20437;-81
2022/01/29 00:59:40;;;;;;;10.68;3.28;;;23.50;59.90;;;;;;5013470;28;20400;-75
2022/01/29 01:02:08;;;;;;;11.98;3.03;;;23.50;60.00;;;;;;5014208;28;20496;-75
2022/01/29 01:04:38;;;;;;;13.48;4.00;;;23.50;59.90;;;;;;5011922;28;20376;-81
2022/01/29 01:07:10;;;;;;;13.98;2.90;;;23.50;59.80;;;;;;5012770;28;20445;-75
2022/01/29 01:09:38;;;;;;;10.82;3.10;;;23.50;59.60;;;;;;5013578;28;20401;-80
2022/01/29 01:12:08;;;;;;;13.02;3.72;;;23.50;59.50;;;;;;5013544;28;20441;-75
2022/01/29 01:14:36;;;;;;;16.55;3.50;;;23.40;59.40;;;;;;5013828;28;20476;-81
2022/01/29 01:17:04;;;;;;;10.70;3.13;;;23.50;59.50;;;;;;5011343;28;20465;-78
2022/01/29 01:19:31;;;;;;;11.75;3.17;;;23.40;59.40;;;;;;5013710;28;20439;-78
2022/01/29 01:21:58;;;;;;;12.35;3.92;;;23.40;59.50;;;;;;5013330;28;20371;-80
2022/01/29 01:24:26;;;;;;;12.55;3.38;;;23.40;59.50;;;;;;5013718;28;20026;-80
2022/01/29 01:26:53;;;;;;;17.23;3.45;;;23.40;59.60;;;;;;5012158;28;20022;-74
2022/01/29 01:29:21;;;;;;;12.93;3.28;;;23.40;59.70;;;;;;5013806;28;20365;-83
2022/01/29 01:31:48;;;;;;;7.65;2.65;;;23.40;59.80;;;;;;5012749;28;20520;-79
2022/01/29 01:34:21;;;;;;;10.60;3.90;;;23.40;59.90;;;;;;5014084;28;20465;-75
2022/01/29 01:36:54;;;;;;;15.25;4.40;;;23.30;60.00;;;;;;5011655;28;20487;-74
2022/01/29 01:39:27;;;;;;;19.42;3.55;;;23.30;60.10;;;;;;5012282;28;20716;-74
2022/01/29 01:42:03;;;;;;;22.90;4.50;;;23.30;60.20;;;;;;5013228;28;20030;-83
2022/01/29 01:44:48;;;;;;;24.67;4.72;;;23.30;60.40;;;;;;5011270;28;20452;-73
2022/01/29 01:47:17;;;;;;;14.25;4.45;;;23.30;60.40;;;;;;5013571;28;20453;-80
2022/01/29 01:49:45;;;;;;;21.25;4.63;;;23.30;60.60;;;;;;5012471;28;20460;-75
2022/01/29 01:52:14;;;;;;;28.33;4.63;;;23.30;60.70;;;;;;5013444;28;20467;-79
2022/01/29 01:54:43;;;;;;;23.55;4.07;;;23.30;61.10;;;;;;5012552;28;20461;-77
2022/01/29 01:57:11;;;;;;;19.70;3.55;;;23.20;60.90;;;;;;5032459;28;20545;-81
2022/01/29 01:59:38;;;;;;;22.58;4.57;;;23.20;60.90;;;;;;5031884;28;20455;-80
2022/01/29 02:02:05;;;;;;;24.38;5.13;;;23.20;61.00;;;;;;5032797;28;20543;-76
2022/01/29 02:04:34;;;;;;;18.33;4.95;;;23.20;61.20;;;;;;5031886;28;20431;-82
2022/01/29 02:07:02;;;;;;;16.88;6.10;;;23.20;61.10;;;;;;5032401;28;20360;-81
2022/01/29 02:09:31;;;;;;;13.25;4.50;;;23.20;61.00;;;;;;5032837;28;20411;-83
2022/01/29 02:12:01;;;;;;;15.10;5.07;;;23.20;60.90;;;;;;5031726;28;20448;-81
2022/01/29 02:14:32;;;;;;;19.35;4.95;;;23.10;60.80;;;;;;5032847;28;20543;-84
2022/01/29 02:17:01;;;;;;;18.63;4.18;;;23.10;60.70;;;;;;5032799;28;20460;-83
2022/01/29 02:19:28;;;;;;;14.18;5.28;;;23.10;60.60;;;;;;5015772;28;20341;-85
2022/01/29 02:21:56;;;;;;;16.45;4.93;;;23.10;60.50;;;;;;5032928;28;20426;-84
2022/01/29 02:24:24;;;;;;;13.70;3.95;;;23.10;60.50;;;;;;5015598;28;20441;-85
2022/01/29 02:26:51;;;;;;;21.55;5.18;;;23.10;60.50;;;;;;5032310;28;20499;-79
2022/01/29 02:29:19;;;;;;;19.27;4.00;;;23.10;60.60;;;;;;5032331;28;20024;-78
2022/01/29 02:31:52;;;;;;;90.32;8.48;;;23.10;60.80;;;;;;5031469;28;20375;-79
2022/01/29 02:34:21;;;;;;;46.08;15.35;;;23.10;60.50;;;;;;5032481;28;20026;-79
2022/01/29 02:36:48;;;;;;;42.17;15.68;;;23.10;60.80;;;;;;5014450;28;20384;-79
2022/01/29 02:39:18;;;;;;;24.45;11.32;;;23.00;61.00;;;;;;5032906;28;20468;-76
2022/01/29 02:41:46;;;;;;;24.63;8.65;;;23.00;60.80;;;;;;5014171;28;20526;-77
2022/01/29 02:44:21;;;;;;;26.15;7.82;;;23.00;60.60;;;;;;5032793;28;20427;-76
2022/01/29 02:46:54;;;;;;;17.88;6.72;;;23.00;60.60;;;;;;5032746;28;20416;-82
2022/01/29 02:49:24;;;;;;;28.58;5.70;;;23.00;60.70;;;;;;5013818;28;20472;-78
2022/01/29 02:51:57;;;;;;;20.35;4.60;;;23.00;60.90;;;;;;5032362;28;20456;-76
2022/01/29 02:54:25;;;;;;;25.35;5.55;;;22.90;61.00;;;;;;5031569;28;20360;-81
2022/01/29 02:56:56;;;;;;;25.15;4.90;;;22.90;61.10;;;;;;5031369;28;20467;-84
2022/01/29 02:59:23;;;;;;;31.95;5.03;;;22.90;61.50;;;;;;5031926;28;20376;-81
2022/01/29 03:01:50;;;;;;;54.15;7.63;;;22.90;62.30;;;;;;5031247;28;20365;-73
2022/01/29 03:04:18;;;;;;;25.98;5.50;;;22.90;62.80;;;;;;5031960;28;20411;-79
2022/01/29 03:06:45;;;;;;;18.85;4.35;;;22.90;62.70;;;;;;5030160;28;20437;-74
2022/01/29 03:09:12;;;;;;;16.70;4.35;;;22.90;63.00;;;;;;5012966;28;20025;-75
2022/01/29 03:11:39;;;;;;;29.13;6.43;;;22.80;62.20;;;;;;5013267;28;20377;-78
2022/01/29 03:14:07;;;;;;;33.30;5.93;;;22.80;62.00;;;;;;5031869;28;20404;-76
2022/01/29 03:16:38;;;;;;;39.40;5.63;;;22.80;62.00;;;;;;5030815;28;20365;-78
2022/01/29 03:19:11;;;;;;;53.47;12.98;;;22.80;62.00;;;;;;5032130;28;20010;-76
2022/01/29 03:21:39;;;;;;;42.45;14.80;;;22.80;62.10;;;;;;5013414;28;20419;-75
2022/01/29 03:24:07;;;;;;;25.75;8.90;;;22.80;62.00;;;;;;5032262;28;20372;-75
2022/01/29 03:26:34;;;;;;;26.95;7.20;;;22.80;61.50;;;;;;5030622;28;20336;-76
2022/01/29 03:29:01;;;;;;;14.15;5.32;;;22.80;61.20;;;;;;5032163;28;20460;-77
2022/01/29 03:31:29;;;;;;;12.60;4.03;;;22.80;60.90;;;;;;5031883;28;20392;-77
2022/01/29 03:34:00;;;;;;;15.77;3.90;;;22.80;60.50;;;;;;5014564;28;20367;-76
2022/01/29 03:36:27;;;;;;;21.23;4.00;;;22.80;60.40;;;;;;5031860;28;20372;-76
2022/01/29 03:38:54;;;;;;;36.92;4.90;;;22.80;60.20;;;;;;5031945;28;20422;-74
2022/01/29 03:41:22;;;;;;;35.88;5.78;;;22.80;60.20;;;;;;5032582;28;20448;-76
2022/01/29 03:43:51;;;;;;;27.17;4.45;;;22.80;60.30;;;;;;5159815;22;20118;-76
2022/01/29 03:46:18;;;;;;;18.55;4.30;;;22.70;60.20;;;;;;5040923;28;20108;-77
2022/01/29 03:48:44;;;;;;;13.57;4.53;;;22.70;60.30;;;;;;5049432;28;20021;-76
2022/01/29 03:51:11;;;;;;;16.45;3.75;;;22.70;60.50;;;;;;5042377;28;20033;-77
2022/01/29 03:53:37;;;;;;;13.07;3.58;;;22.70;60.80;;;;;;5042439;28;20494;-76
2022/01/29 03:56:04;;;;;;;12.68;3.83;;;22.70;60.90;;;;;;5042461;28;20561;-74
2022/01/29 03:58:30;;;;;;;11.85;3.42;;;22.70;61.10;;;;;;5029507;28;20052;-76
2022/01/29 04:00:57;;;;;;;12.23;3.55;;;22.70;61.40;;;;;;5048765;28;20507;-77
2022/01/29 04:03:23;;;;;;;17.52;5.90;;;22.70;61.50;;;;;;5042899;28;20044;-73
2022/01/29 04:05:50;;;;;;;34.53;15.50;;;22.70;61.60;;;;;;5046092;28;20022;-75
2022/01/29 04:08:18;;;;;;;34.30;13.73;;;22.70;61.70;;;;;;5040802;28;20467;-73
2022/01/29 04:10:46;;;;;;;35.30;10.05;;;22.70;61.90;;;;;;5048760;28;20068;-73
2022/01/29 04:13:14;;;;;;;24.73;8.52;;;22.70;61.80;;;;;;5045993;28;20021;-73
2022/01/29 04:15:42;;;;;;;19.27;5.03;;;22.70;61.70;;;;;;5036878;28;20486;-73
2022/01/29 04:18:08;;;;;;;16.75;5.68;;;22.60;61.50;;;;;;5048647;28;20403;-74
2022/01/29 04:20:35;;;;;;;42.83;5.68;;;22.60;61.40;;;;;;5045951;28;20027;-72
2022/01/29 04:23:01;;;;;;;52.47;7.40;;;22.60;61.50;;;;;;5031575;28;20032;-74
2022/01/29 04:25:28;;;;;;;36.72;7.03;;;22.60;61.80;;;;;;5048986;28;20439;-74
2022/01/29 04:27:54;;;;;;;40.25;6.13;;;22.60;62.00;;;;;;5041975;28;20017;-76
2022/01/29 04:30:29;;;;;;;33.22;6.68;;;22.60;62.10;;;;;;5049665;28;20056;-74
2022/01/29 04:33:15;;;;;;;26.83;5.63;;;22.60;62.30;;;;;;5041956;28;20503;-72
2022/01/29 04:35:43;;;;;;;12.60;4.25;;;22.60;62.30;;;;;;5039062;28;20021;-74
2022/01/29 04:38:09;;;;;;;29.73;5.93;;;22.60;62.20;;;;;;5035033;28;20043;-76
2022/01/29 04:40:36;;;;;;;33.38;5.50;;;22.60;62.40;;;;;;5042745;28;20084;-73
2022/01/29 04:43:06;;;;;;;28.95;6.82;;;22.60;62.80;;;;;;5046557;28;20499;-74
2022/01/29 04:45:32;;;;;;;33.95;5.63;;;22.60;63.20;;;;;;5041368;28;20082;-74
2022/01/29 04:47:59;;;;;;;89.22;56.28;;;22.60;63.60;;;;;;5045775;28;20063;-76
2022/01/29 04:50:26;;;;;;;83.90;40.35;;;22.60;64.10;;;;;;5045186;28;20033;-74
2022/01/29 04:52:53;;;;;;;40.70;22.25;;;22.60;64.50;;;;;;5048665;28;20115;-76
2022/01/29 04:55:19;;;;;;;36.72;13.63;;;22.60;64.70;;;;;;5047327;28;20044;-77
2022/01/29 04:57:49;;;;;;;26.85;9.98;;;22.50;64.50;;;;;;5045777;28;20506;-77
2022/01/29 05:00:20;;;;;;;24.70;7.57;;;22.50;64.50;;;;;;5045314;28;20036;-74
2022/01/29 05:02:52;;;;;;;36.60;8.00;;;22.50;64.40;;;;;;5043150;28;20029;-75
2022/01/29 05:05:19;;;;;;;35.63;6.68;;;22.50;64.40;;;;;;5045262;28;20013;-75
2022/01/29 05:07:46;;;;;;;42.85;6.55;;;22.50;64.50;;;;;;5042502;28;20091;-77
2022/01/29 05:10:13;;;;;;;34.78;5.85;;;22.50;64.80;;;;;;5026826;28;20484;-74
2022/01/29 05:12:47;;;;;;;22.67;5.25;;;22.50;64.90;;;;;;5046050;28;20024;-74
2022/01/29 05:28:50;;;;;;;28.15;8.60;;;22.60;64.70;;;;;;5045810;28;20277;-81
2022/01/29 05:31:17;;;;;;;16.15;7.07;;;22.60;64.90;;;;;;5050445;28;20047;-73
2022/01/29 05:33:43;;;;;;;19.52;4.95;;;22.60;64.90;;;;;;5045021;28;20006;-77
2022/01/29 05:36:11;;;;;;;17.58;4.50;;;22.60;65.00;;;;;;5050138;28;20040;-77
2022/01/29 05:38:37;;;;;;;15.35;4.35;;;22.60;65.00;;;;;;5047529;28;20041;-77
2022/01/29 05:41:04;;;;;;;18.95;4.75;;;22.60;65.00;;;;;;5043334;28;20026;-76
2022/01/29 05:43:32;;;;;;;13.05;4.45;;;22.60;65.10;;;;;;5032871;28;20046;-76
2022/01/29 05:45:58;;;;;;;22.60;4.78;;;22.60;65.00;;;;;;5035765;28;20026;-76
2022/01/29 05:48:25;;;;;;;27.80;5.60;;;22.70;65.00;;;;;;5033530;28;20013;-76
2022/01/29 05:50:51;;;;;;;28.33;5.65;;;22.60;64.90;;;;;;5033388;28;20018;-75
2022/01/29 05:53:18;;;;;;;18.98;4.50;;;22.70;64.80;;;;;;5034678;28;20052;-74
2022/01/29 05:55:44;;;;;;;18.80;4.10;;;22.70;64.80;;;;;;5033494;28;20377;-74
2022/01/29 05:58:11;;;;;;;15.40;6.55;;;22.70;64.80;;;;;;5039589;28;20029;-74
2022/01/29 06:00:37;;;;;;;36.63;7.30;;;22.80;64.90;;;;;;5037377;28;20029;-79
2022/01/29 06:03:08;;;;;;;41.33;9.27;;;22.80;64.80;;;;;;5037612;28;20020;-79
2022/01/29 06:05:36;;;;;;;27.63;7.80;;;22.80;64.60;;;;;;5035858;28;20104;-76
2022/01/29 06:08:03;;;;;;;32.30;8.50;;;22.80;64.50;;;;;;5036436;28;20021;-76
2022/01/29 06:10:30;;;;;;;19.20;5.35;;;22.90;64.40;;;;;;5035853;28;20022;-75
2022/01/29 06:13:01;;;;;;;20.10;5.53;;;22.80;64.50;;;;;;5038704;28;20016;-76
2022/01/29 06:15:28;;;;;;;22.75;6.32;;;22.90;64.70;;;;;;5034657;28;20112;-75
2022/01/29 06:17:55;;;;;;;24.33;6.00;;;22.90;64.60;;;;;;5034918;28;20030;-74
2022/01/29 06:20:22;;;;;;;51.78;10.50;;;23.00;64.60;;;;;;5049292;28;20024;-75
2022/01/29 06:22:48;;;;;;;35.72;12.00;;;23.00;64.30;;;;;;5043260;28;20029;-74
2022/01/29 06:25:15;;;;;;;32.58;9.07;;;23.00;64.20;;;;;;5047061;28;20025;-74
2022/01/29 06:27:41;;;;;;;37.10;8.65;;;23.00;64.00;;;;;;5050157;28;20029;-74
2022/01/29 06:30:11;;;;;;;23.30;6.28;;;23.00;63.80;;;;;;5047115;28;20100;-74
2022/01/29 06:32:38;;;;;;;18.45;5.70;;;23.10;63.60;;;;;;5025594;28;20438;-74
2022/01/29 06:35:05;;;;;;;20.52;4.25;;;23.10;63.60;;;;;;5046978;28;20147;-74
2022/01/29 06:37:31;;;;;;;20.63;5.18;;;23.20;63.60;;;;;;5044689;28;20041;-74
2022/01/29 06:39:58;;;;;;;15.75;5.03;;;23.20;63.50;;;;;;5047199;28;20051;-75
2022/01/29 06:42:25;;;;;;;12.30;5.38;;;23.30;63.40;;;;;;5048050;28;20028;-74
2022/01/29 06:44:51;;;;;;;15.20;5.63;;;23.30;63.20;;;;;;5046668;28;20048;-76
2022/01/29 06:47:18;;;;;;;25.77;5.03;;;23.30;63.00;;;;;;5045980;28;20024;-77
2022/01/29 06:49:44;;;;;;;16.65;3.80;;;23.30;62.90;;;;;;5046555;28;20024;-74
2022/01/29 06:52:11;;;;;;;12.10;3.88;;;23.40;62.70;;;;;;5048193;28;20103;-73
2022/01/29 06:54:37;;;;;;;16.13;4.55;;;23.40;62.30;;;;;;5048521;28;20068;-72
2022/01/29 06:57:04;;;;;;;18.70;3.28;;;23.40;62.20;;;;;;5047199;28;20117;-72
2022/01/29 06:59:30;;;;;;;18.75;3.65;;;23.50;61.40;;;;;;5050355;28;20035;-73
2022/01/29 07:01:57;;;;;;;14.52;4.05;;;23.50;61.00;;;;;;5046269;28;20025;-73
2022/01/29 07:04:23;;;;;;;17.80;4.28;;;23.50;60.60;;;;;;5046224;28;21092;-72
2022/01/29 07:06:50;;;;;;;19.15;4.30;;;23.60;60.30;;;;;;5046908;28;20021;-73
2022/01/29 07:09:16;;;;;;;24.98;3.72;;;23.60;60.20;;;;;;5048062;28;20025;-74
2022/01/29 07:11:44;;;;;;;12.07;3.65;;;23.60;60.20;;;;;;5047579;28;20086;-73
2022/01/29 07:14:16;;;;;;;14.70;3.33;;;23.60;60.10;;;;;;5047175;28;20040;-72
2022/01/29 07:16:43;;;;;;;13.15;3.40;;;23.70;60.10;;;;;;5048200;28;20025;-73
2022/01/29 07:19:10;;;;;;;13.85;3.88;;;23.70;59.90;;;;;;5045998;28;20068;-75
2022/01/29 07:21:38;;;;;;;15.90;3.78;;;23.70;59.90;;;;;;5046609;28;20032;-73
2022/01/29 07:24:05;;;;;;;11.18;3.63;;;23.70;59.80;;;;;;5049870;28;20086;-72
2022/01/29 07:26:32;;;;;;;15.40;4.70;;;23.80;59.70;;;;;;5046652;28;20029;-74
2022/01/29 07:28:59;;;;;;;10.93;3.22;;;23.80;59.40;;;;;;5047270;28;20059;-72
2022/01/29 07:31:25;;;;;;;12.52;3.00;;;23.80;59.20;;;;;;5046851;28;20028;-72
2022/01/29 07:33:52;;;;;;;12.93;4.22;;;23.90;59.20;;;;;;5049073;28;20017;-72
2022/01/29 07:36:18;;;;;;;9.18;2.60;;;23.90;59.00;;;;;;5048613;28;20491;-74
2022/01/29 07:38:45;;;;;;;6.20;2.38;;;24.00;58.90;;;;;;5046409;28;20467;-73
2022/01/29 07:41:11;;;;;;;9.88;3.00;;;24.00;58.50;;;;;;5045059;28;20491;-74
2022/01/29 07:43:37;;;;;;;7.35;2.92;;;24.10;57.60;;;;;;5051565;28;20049;-73
2022/01/29 07:46:04;;;;;;;10.15;2.80;;;24.10;57.30;;;;;;5048999;28;20582;-72
2022/01/29 07:48:30;;;;;;;12.13;4.15;;;24.10;57.20;;;;;;5047415;28;20060;-72
2022/01/29 07:50:57;;;;;;;12.05;3.20;;;24.20;57.00;;;;;;5051514;28;20017;-72
2022/01/29 07:53:23;;;;;;;12.60;4.05;;;24.20;57.10;;;;;;5050038;28;20097;-72
2022/01/29 07:55:50;;;;;;;13.00;3.63;;;24.30;57.30;;;;;;5050146;28;20115;-73
2022/01/29 07:58:16;;;;;;;14.60;4.18;;;24.30;57.30;;;;;;5050011;28;20515;-73
2022/01/29 08:00:43;;;;;;;11.48;3.63;;;24.40;57.70;;;;;;5050641;28;20036;-73
2022/01/29 08:03:09;;;;;;;53.38;6.43;;;24.40;57.50;;;;;;5051022;28;20104;-80
2022/01/29 08:05:36;;;;;;;21.52;4.50;;;24.50;57.50;;;;;;5050410;28;20064;-76
2022/01/29 08:08:02;;;;;;;16.73;3.55;;;24.50;57.80;;;;;;5048997;28;20032;-76
2022/01/29 08:10:29;;;;;;;18.50;3.40;;;24.60;58.00;;;;;;5050353;28;20083;-75
2022/01/29 08:12:59;;;;;;;21.35;3.75;;;24.60;58.40;;;;;;5050477;28;20412;-74
2022/01/29 08:15:25;;;;;;;95.90;8.38;;;24.60;58.60;;;;;;5050730;28;20060;-76
2022/01/29 08:17:52;;;;;;;35.33;4.65;;;24.70;57.50;;;;;;5052279;28;20341;-72
2022/01/29 08:20:18;;;;;;;32.65;6.00;;;24.80;57.50;;;;;;5050190;28;20052;-75
2022/01/29 08:22:46;;;;;;;74.47;11.07;;;24.80;56.70;;;;;;5048972;28;20021;-79
2022/01/29 08:25:13;;;;;;;212.18;24.25;;;24.90;56.60;;;;;;5051910;28;20529;-72
2022/01/29 08:27:39;;;;;;;105.55;13.65;;;24.90;56.40;;;;;;5047583;28;20436;-73
2022/01/29 08:30:06;;;;;;;57.13;8.40;;;25.00;56.60;;;;;;5050475;28;20064;-76
2022/01/29 08:32:40;;;;;;;33.92;7.05;;;25.00;56.50;;;;;;5042269;28;20043;-74
2022/01/29 08:35:13;;;;;;;35.70;6.60;;;25.10;56.40;;;;;;5045019;28;20407;-73
2022/01/29 08:37:42;;;;;;;27.60;6.70;;;25.10;57.10;;;;;;5047208;28;20061;-75
2022/01/29 08:40:13;;;;;;;36.05;5.47;;;25.20;57.20;;;;;;5046743;28;20032;-75
2022/01/29 08:42:40;;;;;;;35.22;4.43;;;25.20;57.40;;;;;;5050598;28;20036;-74
